Flight Track Log - Related Links

Times and Time Zones

All times are in EDT time to prevent confusion due to time zone crossing. See the PDT4147 flight status page for this flight to view local times or setup timezone preferences in your user account.

Time Position Orientation Groundspeed Altitude Reporting Facility
EDT Latitude Longitude Course Direction KTS MPH feet Rate Location/Type
Sat 04:18:00 PM 37.1266 -79.9967 195° South  Level FlightAware Approximate
Sat 04:19:00 PM 37.0677 -80.0219 195° South  Level FlightAware Approximate
Sat 04:20:00 PM 37.0065 -80.0333 180° South  Level FlightAware Approximate
Sat 04:21:00 PM 36.9442 -80.0316 176° South  Level FlightAware Approximate
Sat 04:22:00 PM 36.8819 -80.0268 176° South  Level FlightAware Approximate
Sat 04:23:00 PM 36.8197 -80.0220 176° South  Level FlightAware Approximate
Sat 04:24:00 PM 36.7575 -80.0172 176° South  Level FlightAware Approximate
Sat 04:25:00 PM 36.6952 -80.0153 177° South  Level FlightAware Approximate
Sat 04:26:00 PM 36.6329 -80.0114 177° South  Level FlightAware Approximate
Sat 04:27:00 PM 36.5706 -80.0075 177° South  Level FlightAware Approximate
Sat 04:28:00 PM 36.5083 -80.0036 177° South  Level FlightAware Approximate
Sat 04:29:00 PM 36.4461 -79.9995 174° South  Level FlightAware Approximate
Sat 04:30:00 PM 36.3840 -79.9918 174° South  Level FlightAware Approximate
Sat 04:31:00 PM 36.3220 -79.9840 174° South  Level FlightAware Approximate
Sat 04:32:00 PM 36.2597 -79.9800 177° South  Level FlightAware Approximate
Sat 04:33:00 PM 36.1974 -79.9763 177° South  Level FlightAware Approximate
Sat 04:34:00 PM 36.1352 -79.9726 177° South  Level FlightAware Approximate
Sat 04:35:00 PM 36.0729 -79.9690 177° South  Level FlightAware Approximate
Sat 04:36:00 PM 36.0186 -79.9882 230° Southwest  Level FlightAware Approximate
Sat 04:37:00 PM 35.9783 -80.0469 230° Southwest  Level FlightAware Approximate
Sat 04:38:00 PM 35.9380 -80.1057 230° Southwest  Level FlightAware Approximate
Sat 04:39:00 PM 35.8976 -80.1643 230° Southwest  Level FlightAware Approximate
Sat 04:40:00 PM 35.8572 -80.2230 230° Southwest  Level FlightAware Approximate
Sat 04:41:00 PM 35.8140 -80.2784 225° Southwest  Level FlightAware Approximate
Sat 04:42:00 PM 35.7706 -80.3336 227° Southwest  Level FlightAware Approximate
Sat 04:43:00 PM 35.7283 -80.3901 227° Southwest  Level FlightAware Approximate
Sat 04:43:27 PM 35.9639 -80.3728 214° Southwest 202 232 6,000  Level Atlanta Center
Sat 04:43:51 PM 35.9369 -80.3817 195° South 202 232 6,000 -71 Level Atlanta Center
Sat 04:44:00 PM 35.6860 -80.4465 227° Southwest  Level FlightAware Approximate
Sat 04:44:52 PM 35.8836 -80.4044 199° South 203 234 5,900  Level Atlanta Center
Sat 04:45:00 PM 35.6420 -80.5006 228° Southwest  Level FlightAware Approximate
Sat 04:45:53 PM 35.8300 -80.4300 201° Southwest 204 235 5,900  Level Atlanta Center
Sat 04:46:00 PM 35.6005 -80.5578 228° Southwest  Level FlightAware Approximate
Sat 04:46:48 PM 35.7850 -80.4575 206° Southwest 201 231 5,900  Level Atlanta Center
Sat 04:47:00 PM 35.5589 -80.6149 228° Southwest  Level FlightAware Approximate
Sat 04:47:55 PM 35.7342 -80.5033 216° Southwest 201 231 5,900  Level Atlanta Center
Sat 04:48:00 PM 35.5146 -80.6684 214° Southwest  Level FlightAware Approximate
Sat 04:48:50 PM 35.7042 -80.5481 230° Southwest 198 228 5,900  Level Atlanta Center
Sat 04:49:57 PM 35.6725 -80.6108 238° Southwest 193 222 5,900  Level Atlanta Center
Sat 04:50:58 PM 35.6406 -80.6656 234° Southwest 192 221 5,900  Level Atlanta Center
Sat 04:51:59 PM 35.6067 -80.7233 234° Southwest 193 222 5,900 -49 Level Atlanta Center
Sat 04:53:00 PM 35.5789 -80.7756 237° Southwest 192 221 5,800 -541 Descending Atlanta Center
Sat 04:54:01 PM 35.5450 -80.8306 233° Southwest 194 223 4,800 -934 Descending Atlanta Center
Sat 04:55:02 PM 35.5086 -80.8778 227° Southwest 194 223 3,900 -443 Descending Atlanta Center
Sat 04:56:03 PM 35.4611 -80.9025 203° Southwest 189 217 3,900  Level Atlanta Center
Sat 04:57:04 PM 35.4097 -80.9250 200° South 185 213 3,900 -295 Level Atlanta Center
Sat 04:58:05 PM 35.3622 -80.9497 203° Southwest 182 209 3,300 -590 Descending Atlanta Center

Login

Don't have an account? Register now (free) for customized features, flight alerts, and more!